Loraine, IL (62349)

11:46 PM CDT en Julio 27, 2016 (GMT -0500)
Chem Gro Inc. | | Change Station

Alt 679 ft 40.24 °N, 91.06 °W | Updated 5 seconds ago

Clear
Despejado
75.6 ° F
Sensación térmica 75 ° F
N
4.3
Viento Variable Viento desde Este
Gusts 4.5 mph

Hoy
Alta -- | Baja -- ° F
--% Posibilidad de precipitaciones
Ayer
Alta -- | Baja -- ° F
Precip. -- pul
Presión 29.91 pul
Visibilidad 10.0 Millas
Nubes Despejado
Índice de calor 75 ° F
Punto de rocío 73 ° F
Humedad 92%
Precipitaciones 0.00 pul
Espesor de la nieve No disponible.
5:58 AM 8:23 PM
Cuarto menguante, 36% visible
METAR KUIN 280354Z AUTO 11006KT 10SM CLR 23/21 A2993 RMK AO2 LTG DSNT E AND SE SLP126 T02330211
Presión 29.91 pul
Visibilidad 10.0 Millas
Nubes Despejado
Índice de calor 75 ° F
Punto de rocío 73 ° F
Humedad 92%
Precipitaciones 0.00 pul
Espesor de la nieve No disponible.
5:58 AM 8:23 PM
Cuarto menguante, 36% visible
METAR KUIN 280354Z AUTO 11006KT 10SM CLR 23/21 A2993 RMK AO2 LTG DSNT E AND SE SLP126 T02330211

10-Day Weather Forecast

Almanac

Astronomía

Jul. 27, 2016 Salida Puesta
Hora real
Crepúsculo civil
Crepúsculo náutico
Crepúsculo astronómico
Luna
Horas de luz
Horas de luz
Tomorrow will be .
, % of the Moon is Illuminated

Extremos de hoy

Máximos del estado Bajos del estado

Community

WunderPhotos

Upload Photos

1,928,061 ¡fotos cargadas!

WunderBlog® & News

Nearby

Calidad del aire

  Calidad del aire Índice AQ Contaminante
Not available.

Grosos de nieve

Estación Profundido Altura

Actividad de terremotos

Ciudad Distance Mag. Tiempo y dato
Magnitud mínima muestra es 2,5.

Temperaturas de aguas costeras

Lugar Temperatura

Stations

Estaciones meteorológicas cercanas

Ubicación de la estación Temp. Vientos helados Punto de rocío Humedad Viento Precip. Alt Actualizado Tipo
                   

Watches & Warnings

There are currently no watches in effect.